Terminal Aerodrome Forecast
Issued by NWS

Home | Current Version | Previous Version | Text Only | Print | Product List | Glossary On
Versions: 1 2 3 4 5 6 7 8 9 10 11 12 13 14 15 16 17 18 19
000
FTUS43 KGRR 270500
TAFAZO
TAF
KAZO 270540Z 2706/2806 35003KT P6SM OVC035
     FM271200 32006KT 2SM -SN OVC015
     FM271800 34010KT 5SM -SN BKN025=

USA.gov is the U.S. government's official web portal to all federal, state and local government web resources and services.